Tufão DOT 1985: trajetória, intensidade e histórico
22/10/1985, 12:00:00
11/10/1985, 00:00:00 – 22/10/1985, 12:00:00
Trajetória histórica
Acompanhe a evolução e o deslocamento de Tufão DOT em 1985, com a trajetória completa registrada, ventos máximos sustentados de 150 nós, pressão central mínima e cronologia detalhada.
| Data | Hora | Tipo | Ventokm/h | PressãohPa |
|---|---|---|---|---|
| 22/10 | 12:00 | TDDepressão tropical | -- | 1012 |
| 22/10 | 09:00 | TDDepressão tropical | -- | 1012 |
| 22/10 | 06:00 | TDDepressão tropical | -- | 1012 |
| 22/10 | 03:00 | TDDepressão tropical | -- | 1010 |
| 22/10 | 00:00 | TDDepressão tropical | 45 | 1008 |
| 21/10 | 21:00 | TDDepressão tropical | 60 | 998 |
| 21/10 | 18:00 | TSTempestade tropical | 75 | 1000 |
| 21/10 | 15:00 | STSTempestade tropical severa | 95 | 988 |
| 21/10 | 12:00 | TSTempestade tropical | 110 | 990 |
| 21/10 | 09:00 | TTufão | 120 | 975 |
| 21/10 | 06:00 | STSTempestade tropical severa | 130 | 980 |
| 21/10 | 03:00 | TTufão | 140 | 965 |
| 21/10 | 00:00 | STSTempestade tropical severa | 150 | 980 |
| 20/10 | 21:00 | TTufão | 155 | 960 |
| 20/10 | 18:00 | TTufão | 165 | 960 |
| 20/10 | 15:00 | TTufão | 165 | 960 |
| 20/10 | 12:00 | TTufão | 165 | 960 |
| 20/10 | 09:00 | TTufão | 165 | 963 |
| 20/10 | 06:00 | TTufão | 155 | 965 |
| 20/10 | 03:00 | TTufão | 155 | 964 |
| 20/10 | 00:00 | TTufão | 155 | 965 |
| 19/10 | 21:00 | TTufão | 155 | 968 |
| 19/10 | 18:00 | STSTempestade tropical severa | 150 | 975 |
| 19/10 | 15:00 | TTufão | 145 | 970 |
| 19/10 | 12:00 | STSTempestade tropical severa | 140 | 980 |
| 19/10 | 09:00 | TTufão | 135 | 968 |
| 19/10 | 06:00 | TTufão | 130 | 980 |
| 19/10 | 03:00 | TTufão | 125 | 960 |
| 19/10 | 00:00 | TTufão | 120 | 980 |
| 18/10 | 21:00 | TTufão | 140 | 948 |
| 18/10 | 18:00 | TTufão | 155 | 980 |
| 18/10 | 15:00 | TTufão | 180 | 935 |
| 18/10 | 12:00 | STSupertufão | 205 | 925 |
| 18/10 | 09:00 | STSupertufão | 215 | 925 |
| 18/10 | 06:00 | STSupertufão | 220 | 925 |
| 18/10 | 03:00 | STSupertufão | 230 | 920 |
| 18/10 | 00:00 | STSupertufão | 240 | 915 |
| 17/10 | 21:00 | STSupertufão | 245 | 913 |
| 17/10 | 18:00 | STSupertufão | 250 | 910 |
| 17/10 | 15:00 | STSupertufão | 255 | 909 |
| 17/10 | 12:00 | STSupertufão | 260 | 910 |
| 17/10 | 09:00 | STSupertufão | 265 | 905 |
| 17/10 | 06:00 | STSupertufão | 270 | 900 |
| 17/10 | 03:00 | STSupertufão | 275 | 898 |
| 17/10 | 00:00 | STSupertufão | 280 | 895 |
| 16/10 | 21:00 | STSupertufão | 280 | 895 |
| 16/10 | 18:00 | STSupertufão | 280 | 895 |
| 16/10 | 15:00 | STSupertufão | 280 | 894 |
| 16/10 | 12:00 | STSupertufão | 280 | 895 |
| 16/10 | 09:00 | STSupertufão | 275 | 894 |
| 16/10 | 06:00 | STSupertufão | 270 | 905 |
| 16/10 | 03:00 | STSupertufão | 265 | 897 |
| 16/10 | 00:00 | STSupertufão | 260 | 905 |
| 15/10 | 21:00 | STSupertufão | 245 | 908 |
| 15/10 | 18:00 | STSupertufão | 230 | 920 |
| 15/10 | 15:00 | STSupertufão | 220 | 923 |
| 15/10 | 12:00 | STSupertufão | 205 | 940 |
| 15/10 | 09:00 | STSupertufão | 185 | 940 |
| 15/10 | 06:00 | TTufão | 165 | 950 |
| 15/10 | 03:00 | TTufão | 155 | 960 |
| 15/10 | 00:00 | TTufão | 140 | 970 |
| 14/10 | 21:00 | TTufão | 130 | 973 |
| 14/10 | 18:00 | STSTempestade tropical severa | 120 | 980 |
| 14/10 | 15:00 | STSTempestade tropical severa | 115 | 978 |
| 14/10 | 12:00 | STSTempestade tropical severa | 110 | 985 |
| 14/10 | 09:00 | STSTempestade tropical severa | 105 | 983 |
| 14/10 | 06:00 | TSTempestade tropical | 100 | 990 |
| 14/10 | 03:00 | STSTempestade tropical severa | 100 | 989 |
| 14/10 | 00:00 | TSTempestade tropical | 95 | 992 |
| 13/10 | 21:00 | STSTempestade tropical severa | 90 | 994 |
| 13/10 | 18:00 | TSTempestade tropical | 85 | 1000 |
| 13/10 | 15:00 | TSTempestade tropical | 80 | 998 |
| 13/10 | 12:00 | TDDepressão tropical | 75 | 1000 |
| 13/10 | 09:00 | TSTempestade tropical | 70 | 1000 |
| 13/10 | 06:00 | TDDepressão tropical | 65 | 1000 |
| 13/10 | 03:00 | TDDepressão tropical | 60 | 1001 |
| 13/10 | 00:00 | TDDepressão tropical | 55 | 1004 |
| 12/10 | 21:00 | TDDepressão tropical | 50 | 1002 |
| 12/10 | 18:00 | TDDepressão tropical | 45 | 1004 |
| 12/10 | 15:00 | TDDepressão tropical | 45 | 1002 |
| 12/10 | 12:00 | TDDepressão tropical | 45 | 1006 |
| 12/10 | 09:00 | TDDepressão tropical | 45 | 1002 |
| 12/10 | 06:00 | TDDepressão tropical | 45 | 1006 |
| 12/10 | 03:00 | TDDepressão tropical | 45 | 1003 |
| 12/10 | 00:00 | TDDepressão tropical | 45 | 1006 |
| 11/10 | 21:00 | TDDepressão tropical | 45 | 1004 |
| 11/10 | 18:00 | TDDepressão tropical | 35 | 1004 |
| 11/10 | 15:00 | TDDepressão tropical | 30 | 1004 |
| 11/10 | 12:00 | TDDepressão tropical | 30 | 1004 |
| 11/10 | 09:00 | TDDepressão tropical | -- | -- |
| 11/10 | 06:00 | TDDepressão tropical | -- | -- |
| 11/10 | 03:00 | TDDepressão tropical | -- | -- |
| 11/10 | 00:00 | TDDepressão tropical | -- | -- |
Cronologia de localização
93 Registos de localizaçãoDesastres naturais próximos
Detalhes do evento
Ligações das fontes
Também pode encontrar estas ferramentas úteis
A localização, a extensão e o estado de cada evento podem ser atualizados em momentos diferentes consoante a fonte. Confirme decisões importantes junto das autoridades oficiais de emergência.
Os registos de eventos provêm da NASA EONET e são complementados por registos de deslizamentos de terra do USGS FDSN. As análises e previsões de tempestades podem utilizar a NOAA NHC ou o JTWC, com registos históricos ATCF da UCAR/NCAR quando disponíveis. As imagens de satélite provêm da NASA Worldview/GIBS (GOES e Himawari) ou da EUMETSAT Meteosat, consoante a cobertura do mapa.
Fontes: NASA EONET · USGS · NOAA NHC · JTWC · UCAR/NCAR ATCF · NASA Worldview/GIBS · EUMETSAT Meteosat · OpenStreetMap contributors